sensor_id;sensor_type;location;lat;lon;timestamp;temperature;humidity
71177;DHT22;58877;51.992;4.504;2022-12-11T00:02:19;4.18;84.90
71177;DHT22;58877;51.992;4.504;2022-12-11T00:04:45;4.21;84.88
71177;DHT22;58877;51.992;4.504;2022-12-11T00:07:11;4.25;84.66
71177;DHT22;58877;51.992;4.504;2022-12-11T00:09:36;4.20;84.56
71177;DHT22;58877;51.992;4.504;2022-12-11T00:12:02;4.11;84.78
71177;DHT22;58877;51.992;4.504;2022-12-11T00:14:30;4.07;84.88
71177;DHT22;58877;51.992;4.504;2022-12-11T00:16:56;4.10;84.97
71177;DHT22;58877;51.992;4.504;2022-12-11T00:19:22;4.10;84.92
71177;DHT22;58877;51.992;4.504;2022-12-11T00:21:47;4.08;85.05
71177;DHT22;58877;51.992;4.504;2022-12-11T00:24:15;4.14;84.95
71177;DHT22;58877;51.992;4.504;2022-12-11T00:26:46;4.17;84.84
71177;DHT22;58877;51.992;4.504;2022-12-11T00:29:12;4.20;84.80
71177;DHT22;58877;51.992;4.504;2022-12-11T00:31:42;4.22;84.71
71177;DHT22;58877;51.992;4.504;2022-12-11T00:34:09;4.24;84.56
71177;DHT22;58877;51.992;4.504;2022-12-11T00:36:37;4.14;84.42
71177;DHT22;58877;51.992;4.504;2022-12-11T00:39:03;4.17;84.52
71177;DHT22;58877;51.992;4.504;2022-12-11T00:41:30;4.11;84.33
71177;DHT22;58877;51.992;4.504;2022-12-11T00:43:56;4.07;84.35
71177;DHT22;58877;51.992;4.504;2022-12-11T00:46:25;4.04;84.50
71177;DHT22;58877;51.992;4.504;2022-12-11T00:48:54;3.98;84.61
71177;DHT22;58877;51.992;4.504;2022-12-11T00:51:23;3.97;84.84
71177;DHT22;58877;51.992;4.504;2022-12-11T00:53:53;3.98;84.63
71177;DHT22;58877;51.992;4.504;2022-12-11T00:56:20;3.98;84.65
71177;DHT22;58877;51.992;4.504;2022-12-11T00:58:49;4.04;84.48
71177;DHT22;58877;51.992;4.504;2022-12-11T01:01:19;4.06;84.28
71177;DHT22;58877;51.992;4.504;2022-12-11T01:03:46;4.00;84.40
71177;DHT22;58877;51.992;4.504;2022-12-11T01:06:14;4.04;84.48
71177;DHT22;58877;51.992;4.504;2022-12-11T01:08:40;4.01;84.38
71177;DHT22;58877;51.992;4.504;2022-12-11T01:11:10;4.06;84.26
71177;DHT22;58877;51.992;4.504;2022-12-11T01:13:37;4.03;84.19
71177;DHT22;58877;51.992;4.504;2022-12-11T01:16:08;4.04;84.28
71177;DHT22;58877;51.992;4.504;2022-12-11T01:18:34;4.01;84.03
71177;DHT22;58877;51.992;4.504;2022-12-11T01:21:08;4.00;84.29
71177;DHT22;58877;51.992;4.504;2022-12-11T01:23:34;4.06;84.26
71177;DHT22;58877;51.992;4.504;2022-12-11T01:26:08;3.96;84.07
71177;DHT22;58877;51.992;4.504;2022-12-11T01:28:35;3.89;84.15
71177;DHT22;58877;51.992;4.504;2022-12-11T01:31:07;3.86;84.20
71177;DHT22;58877;51.992;4.504;2022-12-11T01:33:33;3.89;84.40
71177;DHT22;58877;51.992;4.504;2022-12-11T01:35:59;3.74;84.47
71177;DHT22;58877;51.992;4.504;2022-12-11T01:38:24;3.76;84.66
71177;DHT22;58877;51.992;4.504;2022-12-11T01:40:51;3.76;84.53
71177;DHT22;58877;51.992;4.504;2022-12-11T01:43:18;3.77;84.45
71177;DHT22;58877;51.992;4.504;2022-12-11T01:45:46;3.83;84.68
71177;DHT22;58877;51.992;4.504;2022-12-11T01:48:23;3.90;84.46
71177;DHT22;58877;51.992;4.504;2022-12-11T01:51:04;3.79;84.10
71177;DHT22;58877;51.992;4.504;2022-12-11T01:53:41;3.70;84.40
71177;DHT22;58877;51.992;4.504;2022-12-11T01:56:08;3.73;84.32
71177;DHT22;58877;51.992;4.504;2022-12-11T01:58:45;3.74;84.50
71177;DHT22;58877;51.992;4.504;2022-12-11T02:01:41;3.69;84.59
71177;DHT22;58877;51.992;4.504;2022-12-11T02:04:07;3.70;84.35
71177;DHT22;58877;51.992;4.504;2022-12-11T02:06:41;3.77;84.09
71177;DHT22;58877;51.992;4.504;2022-12-11T02:09:15;3.79;84.06
71177;DHT22;58877;51.992;4.504;2022-12-11T02:20:33;3.79;84.01
71177;DHT22;58877;51.992;4.504;2022-12-11T02:23:32;3.72;84.01
71177;DHT22;58877;51.992;4.504;2022-12-11T02:28:42;3.84;84.14
71177;DHT22;58877;51.992;4.504;2022-12-11T02:31:37;3.84;84.00
71177;DHT22;58877;51.992;4.504;2022-12-11T02:34:17;3.86;84.05
71177;DHT22;58877;51.992;4.504;2022-12-11T02:36:50;3.86;83.95
71177;DHT22;58877;51.992;4.504;2022-12-11T02:39:20;3.80;84.08
71177;DHT22;58877;51.992;4.504;2022-12-11T02:41:50;3.82;84.21
71177;DHT22;58877;51.992;4.504;2022-12-11T02:44:20;3.87;84.34
71177;DHT22;58877;51.992;4.504;2022-12-11T02:46:52;3.90;84.05
71177;DHT22;58877;51.992;4.504;2022-12-11T02:49:21;3.86;84.11
71177;DHT22;58877;51.992;4.504;2022-12-11T02:51:48;3.84;83.97
71177;DHT22;58877;51.992;4.504;2022-12-11T02:54:24;3.82;84.09
71177;DHT22;58877;51.992;4.504;2022-12-11T02:57:05;3.82;84.17
71177;DHT22;58877;51.992;4.504;2022-12-11T02:59:41;3.86;84.07
71177;DHT22;58877;51.992;4.504;2022-12-11T03:02:10;3.83;84.03
71177;DHT22;58877;51.992;4.504;2022-12-11T03:04:37;3.77;83.92
71177;DHT22;58877;51.992;4.504;2022-12-11T03:07:20;3.69;84.13
71177;DHT22;58877;51.992;4.504;2022-12-11T03:09:49;3.69;84.09
71177;DHT22;58877;51.992;4.504;2022-12-11T03:12:30;3.64;84.47
71177;DHT22;58877;51.992;4.504;2022-12-11T03:15:01;3.63;84.52
71177;DHT22;58877;51.992;4.504;2022-12-11T03:17:53;3.72;84.34
71177;DHT22;58877;51.992;4.504;2022-12-11T03:20:44;3.76;84.12
71177;DHT22;58877;51.992;4.504;2022-12-11T03:25:56;3.76;83.84
71177;DHT22;58877;51.992;4.504;2022-12-11T03:28:34;3.76;83.80
71177;DHT22;58877;51.992;4.504;2022-12-11T03:31:08;3.79;83.61
71177;DHT22;58877;51.992;4.504;2022-12-11T03:33:41;3.79;83.52
71177;DHT22;58877;51.992;4.504;2022-12-11T03:36:24;3.79;83.67
71177;DHT22;58877;51.992;4.504;2022-12-11T03:39:32;3.79;83.55
71177;DHT22;58877;51.992;4.504;2022-12-11T03:42:00;3.79;83.49
71177;DHT22;58877;51.992;4.504;2022-12-11T03:44:30;3.79;83.31
71177;DHT22;58877;51.992;4.504;2022-12-11T03:46:59;3.82;83.03
71177;DHT22;58877;51.992;4.504;2022-12-11T03:49:28;3.73;83.22
71177;DHT22;58877;51.992;4.504;2022-12-11T03:51:59;3.73;83.11
71177;DHT22;58877;51.992;4.504;2022-12-11T03:54:26;3.76;82.99
71177;DHT22;58877;51.992;4.504;2022-12-11T03:56:56;3.89;82.78
71177;DHT22;58877;51.992;4.504;2022-12-11T03:59:23;3.83;82.54
71177;DHT22;58877;51.992;4.504;2022-12-11T04:01:49;3.79;82.79
71177;DHT22;58877;51.992;4.504;2022-12-11T04:04:15;3.74;82.82
71177;DHT22;58877;51.992;4.504;2022-12-11T04:06:40;3.84;82.68
71177;DHT22;58877;51.992;4.504;2022-12-11T04:09:06;3.84;82.16
71177;DHT22;58877;51.992;4.504;2022-12-11T04:11:32;3.79;82.55
71177;DHT22;58877;51.992;4.504;2022-12-11T04:14:07;3.79;82.57
71177;DHT22;58877;51.992;4.504;2022-12-11T04:16:52;3.74;82.57
71177;DHT22;58877;51.992;4.504;2022-12-11T04:19:19;3.83;82.48
71177;DHT22;58877;51.992;4.504;2022-12-11T04:22:04;3.89;82.16
71177;DHT22;58877;51.992;4.504;2022-12-11T04:24:48;3.86;82.21
71177;DHT22;58877;51.992;4.504;2022-12-11T04:27:15;3.89;82.18
71177;DHT22;58877;51.992;4.504;2022-12-11T04:30:07;3.83;82.11
71177;DHT22;58877;51.992;4.504;2022-12-11T04:32:33;3.83;82.08
71177;DHT22;58877;51.992;4.504;2022-12-11T04:34:58;3.86;81.76
71177;DHT22;58877;51.992;4.504;2022-12-11T04:37:27;3.77;81.61
71177;DHT22;58877;51.992;4.504;2022-12-11T04:39:53;3.74;81.82
71177;DHT22;58877;51.992;4.504;2022-12-11T04:42:18;3.69;81.82
71177;DHT22;58877;51.992;4.504;2022-12-11T04:44:44;3.69;81.76
71177;DHT22;58877;51.992;4.504;2022-12-11T04:47:10;3.74;81.50
71177;DHT22;58877;51.992;4.504;2022-12-11T04:49:36;3.70;81.31
71177;DHT22;58877;51.992;4.504;2022-12-11T04:52:05;3.67;80.93
71177;DHT22;58877;51.992;4.504;2022-12-11T04:54:31;3.53;80.84
71177;DHT22;58877;51.992;4.504;2022-12-11T04:56:57;3.59;81.10
71177;DHT22;58877;51.992;4.504;2022-12-11T04:59:23;3.62;80.32
71177;DHT22;58877;51.992;4.504;2022-12-11T05:01:49;3.67;80.26
71177;DHT22;58877;51.992;4.504;2022-12-11T05:04:14;3.62;79.89
71177;DHT22;58877;51.992;4.504;2022-12-11T05:06:40;3.62;79.43
71177;DHT22;58877;51.992;4.504;2022-12-11T05:09:10;3.60;79.63
71177;DHT22;58877;51.992;4.504;2022-12-11T05:11:36;3.64;79.57
71177;DHT22;58877;51.992;4.504;2022-12-11T05:14:02;3.62;79.42
71177;DHT22;58877;51.992;4.504;2022-12-11T05:16:30;3.72;79.41
71177;DHT22;58877;51.992;4.504;2022-12-11T05:18:56;3.79;79.33
71177;DHT22;58877;51.992;4.504;2022-12-11T05:21:21;3.86;79.33
71177;DHT22;58877;51.992;4.504;2022-12-11T05:23:47;3.86;79.31
71177;DHT22;58877;51.992;4.504;2022-12-11T05:26:18;3.87;78.99
71177;DHT22;58877;51.992;4.504;2022-12-11T05:28:45;3.77;79.21
71177;DHT22;58877;51.992;4.504;2022-12-11T05:31:17;3.83;79.38
71177;DHT22;58877;51.992;4.504;2022-12-11T05:33:45;3.84;79.12
71177;DHT22;58877;51.992;4.504;2022-12-11T05:36:33;3.90;79.02
71177;DHT22;58877;51.992;4.504;2022-12-11T05:39:00;3.90;78.97
71177;DHT22;58877;51.992;4.504;2022-12-11T05:41:29;3.91;78.95
71177;DHT22;58877;51.992;4.504;2022-12-11T05:44:15;3.90;78.85
71177;DHT22;58877;51.992;4.504;2022-12-11T05:49:28;3.91;79.08
71177;DHT22;58877;51.992;4.504;2022-12-11T05:51:53;3.89;79.15
71177;DHT22;58877;51.992;4.504;2022-12-11T05:54:19;3.93;79.33
71177;DHT22;58877;51.992;4.504;2022-12-11T05:56:45;3.98;79.42
71177;DHT22;58877;51.992;4.504;2022-12-11T05:59:11;3.94;79.56
71177;DHT22;58877;51.992;4.504;2022-12-11T06:01:41;3.90;79.82
71177;DHT22;58877;51.992;4.504;2022-12-11T06:04:09;3.90;79.91
71177;DHT22;58877;51.992;4.504;2022-12-11T06:06:36;3.89;80.03
71177;DHT22;58877;51.992;4.504;2022-12-11T06:09:04;3.84;80.24
71177;DHT22;58877;51.992;4.504;2022-12-11T06:11:32;3.86;80.34
71177;DHT22;58877;51.992;4.504;2022-12-11T06:14:00;3.86;80.50
71177;DHT22;58877;51.992;4.504;2022-12-11T06:16:25;3.86;80.54
71177;DHT22;58877;51.992;4.504;2022-12-11T06:18:51;3.82;80.62
71177;DHT22;58877;51.992;4.504;2022-12-11T06:21:20;3.87;80.63
71177;DHT22;58877;51.992;4.504;2022-12-11T06:23:48;3.84;80.81
71177;DHT22;58877;51.992;4.504;2022-12-11T06:26:15;3.80;81.11
71177;DHT22;58877;51.992;4.504;2022-12-11T06:28:41;3.73;81.48
71177;DHT22;58877;51.992;4.504;2022-12-11T06:31:06;3.70;81.70
71177;DHT22;58877;51.992;4.504;2022-12-11T06:33:33;3.70;82.00
71177;DHT22;58877;51.992;4.504;2022-12-11T06:36:08;3.72;82.18
71177;DHT22;58877;51.992;4.504;2022-12-11T06:38:34;3.74;82.21
71177;DHT22;58877;51.992;4.504;2022-12-11T06:41:02;3.72;82.19
71177;DHT22;58877;51.992;4.504;2022-12-11T06:43:30;3.79;82.23
71177;DHT22;58877;51.992;4.504;2022-12-11T06:45:56;3.79;82.07
71177;DHT22;58877;51.992;4.504;2022-12-11T06:48:21;3.73;82.03
71177;DHT22;58877;51.992;4.504;2022-12-11T06:50:47;3.76;82.19
71177;DHT22;58877;51.992;4.504;2022-12-11T06:53:14;3.76;82.23
71177;DHT22;58877;51.992;4.504;2022-12-11T06:55:39;3.79;82.11
71177;DHT22;58877;51.992;4.504;2022-12-11T06:58:07;3.77;81.99
71177;DHT22;58877;51.992;4.504;2022-12-11T07:00:36;3.77;82.02
71177;DHT22;58877;51.992;4.504;2022-12-11T07:03:03;3.76;81.88
71177;DHT22;58877;51.992;4.504;2022-12-11T07:05:30;3.73;81.87
71177;DHT22;58877;51.992;4.504;2022-12-11T07:07:57;3.66;82.03
71177;DHT22;58877;51.992;4.504;2022-12-11T07:10:23;3.62;81.67
71177;DHT22;58877;51.992;4.504;2022-12-11T07:12:53;3.55;82.02
71177;DHT22;58877;51.992;4.504;2022-12-11T07:15:19;3.48;82.27
71177;DHT22;58877;51.992;4.504;2022-12-11T07:17:45;3.46;82.23
71177;DHT22;58877;51.992;4.504;2022-12-11T07:20:11;3.42;82.36
71177;DHT22;58877;51.992;4.504;2022-12-11T07:22:37;3.44;82.48
71177;DHT22;58877;51.992;4.504;2022-12-11T07:25:03;3.49;82.43
71177;DHT22;58877;51.992;4.504;2022-12-11T07:27:29;3.49;82.38
71177;DHT22;58877;51.992;4.504;2022-12-11T07:29:54;3.51;82.30
71177;DHT22;58877;51.992;4.504;2022-12-11T07:32:21;3.53;82.16
71177;DHT22;58877;51.992;4.504;2022-12-11T07:34:49;3.51;82.08
71177;DHT22;58877;51.992;4.504;2022-12-11T07:37:15;3.49;82.12
71177;DHT22;58877;51.992;4.504;2022-12-11T07:39:41;3.48;81.97
71177;DHT22;58877;51.992;4.504;2022-12-11T07:42:06;3.48;82.15
71177;DHT22;58877;51.992;4.504;2022-12-11T07:44:32;3.48;82.18
71177;DHT22;58877;51.992;4.504;2022-12-11T07:47:01;3.43;82.15
71177;DHT22;58877;51.992;4.504;2022-12-11T07:49:26;3.48;82.38
71177;DHT22;58877;51.992;4.504;2022-12-11T07:51:58;3.49;82.44
71177;DHT22;58877;51.992;4.504;2022-12-11T07:54:24;3.53;82.30
71177;DHT22;58877;51.992;4.504;2022-12-11T07:56:49;3.58;82.28
71177;DHT22;58877;51.992;4.504;2022-12-11T07:59:15;3.63;82.16
71177;DHT22;58877;51.992;4.504;2022-12-11T08:01:41;3.64;81.91
71177;DHT22;58877;51.992;4.504;2022-12-11T08:04:09;3.67;81.78
71177;DHT22;58877;51.992;4.504;2022-12-11T08:06:38;3.73;81.42
71177;DHT22;58877;51.992;4.504;2022-12-11T08:09:07;3.76;81.31
71177;DHT22;58877;51.992;4.504;2022-12-11T08:11:33;3.76;81.34
71177;DHT22;58877;51.992;4.504;2022-12-11T08:13:59;3.86;81.05
71177;DHT22;58877;51.992;4.504;2022-12-11T08:16:26;3.90;80.74
71177;DHT22;58877;51.992;4.504;2022-12-11T08:18:52;3.93;80.51
71177;DHT22;58877;51.992;4.504;2022-12-11T08:21:21;3.93;80.41
71177;DHT22;58877;51.992;4.504;2022-12-11T08:23:47;3.93;80.21
71177;DHT22;58877;51.992;4.504;2022-12-11T08:26:16;3.91;80.11
71177;DHT22;58877;51.992;4.504;2022-12-11T08:28:43;3.97;79.99
71177;DHT22;58877;51.992;4.504;2022-12-11T08:31:11;3.97;80.00
71177;DHT22;58877;51.992;4.504;2022-12-11T08:33:38;4.01;80.06
71177;DHT22;58877;51.992;4.504;2022-12-11T08:36:06;4.01;79.77
71177;DHT22;58877;51.992;4.504;2022-12-11T08:38:36;3.97;80.07
71177;DHT22;58877;51.992;4.504;2022-12-11T08:43:36;3.96;80.32
71177;DHT22;58877;51.992;4.504;2022-12-11T08:46:02;3.98;80.09
71177;DHT22;58877;51.992;4.504;2022-12-11T08:48:28;4.00;80.28
71177;DHT22;58877;51.992;4.504;2022-12-11T08:50:53;4.00;80.22
71177;DHT22;58877;51.992;4.504;2022-12-11T08:53:19;4.00;80.35
71177;DHT22;58877;51.992;4.504;2022-12-11T08:55:45;4.04;80.35
71177;DHT22;58877;51.992;4.504;2022-12-11T08:58:11;4.06;80.41
71177;DHT22;58877;51.992;4.504;2022-12-11T09:00:36;4.13;80.10
71177;DHT22;58877;51.992;4.504;2022-12-11T09:03:02;4.17;79.96
71177;DHT22;58877;51.992;4.504;2022-12-11T09:05:28;4.18;79.78
71177;DHT22;58877;51.992;4.504;2022-12-11T09:07:54;4.18;80.06
71177;DHT22;58877;51.992;4.504;2022-12-11T09:10:19;4.18;79.87
71177;DHT22;58877;51.992;4.504;2022-12-11T09:12:45;4.13;79.71
71177;DHT22;58877;51.992;4.504;2022-12-11T09:15:14;4.11;79.91
71177;DHT22;58877;51.992;4.504;2022-12-11T09:17:40;4.17;80.00
71177;DHT22;58877;51.992;4.504;2022-12-11T09:20:06;4.25;80.00
71177;DHT22;58877;51.992;4.504;2022-12-11T09:22:32;4.25;79.68
71177;DHT22;58877;51.992;4.504;2022-12-11T09:24:58;4.27;79.70
71177;DHT22;58877;51.992;4.504;2022-12-11T09:27:27;4.25;79.76
71177;DHT22;58877;51.992;4.504;2022-12-11T09:29:53;4.30;79.86
71177;DHT22;58877;51.992;4.504;2022-12-11T09:32:19;4.40;79.71
71177;DHT22;58877;51.992;4.504;2022-12-11T09:34:44;4.40;79.53
71177;DHT22;58877;51.992;4.504;2022-12-11T09:37:10;4.38;79.61
71177;DHT22;58877;51.992;4.504;2022-12-11T09:39:36;4.25;79.86
71177;DHT22;58877;51.992;4.504;2022-12-11T09:44:30;4.33;79.91
71177;DHT22;58877;51.992;4.504;2022-12-11T09:46:57;4.33;79.90
71177;DHT22;58877;51.992;4.504;2022-12-11T09:49:34;4.24;80.24
71177;DHT22;58877;51.992;4.504;2022-12-11T09:52:17;4.40;80.15
71177;DHT22;58877;51.992;4.504;2022-12-11T09:54:58;4.45;79.97
71177;DHT22;58877;51.992;4.504;2022-12-11T09:57:34;4.47;80.23
71177;DHT22;58877;51.992;4.504;2022-12-11T10:00:31;4.48;79.91
71177;DHT22;58877;51.992;4.504;2022-12-11T10:10:59;4.54;80.67
71177;DHT22;58877;51.992;4.504;2022-12-11T10:18:31;4.54;80.32
71177;DHT22;58877;51.992;4.504;2022-12-11T10:21:01;4.55;80.43
71177;DHT22;58877;51.992;4.504;2022-12-11T10:23:57;4.59;80.43
71177;DHT22;58877;51.992;4.504;2022-12-11T10:26:23;4.59;80.13
71177;DHT22;58877;51.992;4.504;2022-12-11T10:28:50;4.54;80.16
71177;DHT22;58877;51.992;4.504;2022-12-11T10:31:39;4.54;80.54
71177;DHT22;58877;51.992;4.504;2022-12-11T10:34:32;4.67;80.38
71177;DHT22;58877;51.992;4.504;2022-12-11T10:36:58;4.69;79.74
71177;DHT22;58877;51.992;4.504;2022-12-11T10:39:27;4.76;79.62
71177;DHT22;58877;51.992;4.504;2022-12-11T10:41:54;4.83;78.54
71177;DHT22;58877;51.992;4.504;2022-12-11T10:47:14;4.79;77.69
71177;DHT22;58877;51.992;4.504;2022-12-11T10:49:58;4.82;77.95
71177;DHT22;58877;51.992;4.504;2022-12-11T10:52:36;4.81;77.88
71177;DHT22;58877;51.992;4.504;2022-12-11T10:55:20;4.89;77.98
71177;DHT22;58877;51.992;4.504;2022-12-11T10:58:03;4.95;77.80
71177;DHT22;58877;51.992;4.504;2022-12-11T11:00:38;5.02;77.80
71177;DHT22;58877;51.992;4.504;2022-12-11T11:03:23;5.06;77.52
71177;DHT22;58877;51.992;4.504;2022-12-11T11:06:15;5.11;77.22
71177;DHT22;58877;51.992;4.504;2022-12-11T11:08:48;5.11;77.19
71177;DHT22;58877;51.992;4.504;2022-12-11T11:11:33;4.82;77.33
71177;DHT22;58877;51.992;4.504;2022-12-11T11:16:36;4.71;78.54
71177;DHT22;58877;51.992;4.504;2022-12-11T11:19:03;4.72;78.88
71177;DHT22;58877;51.992;4.504;2022-12-11T11:21:29;4.71;79.36
71177;DHT22;58877;51.992;4.504;2022-12-11T11:23:57;4.69;79.31
71177;DHT22;58877;51.992;4.504;2022-12-11T11:26:23;4.42;79.61
71177;DHT22;58877;51.992;4.504;2022-12-11T11:28:52;4.47;80.21
71177;DHT22;58877;51.992;4.504;2022-12-11T11:31:21;4.57;80.00
71177;DHT22;58877;51.992;4.504;2022-12-11T11:34:00;4.62;79.98
71177;DHT22;58877;51.992;4.504;2022-12-11T11:36:34;4.72;79.57
71177;DHT22;58877;51.992;4.504;2022-12-11T11:39:16;4.82;79.40
71177;DHT22;58877;51.992;4.504;2022-12-11T11:42:14;4.85;78.27
71177;DHT22;58877;51.992;4.504;2022-12-11T11:47:27;4.73;78.43
71177;DHT22;58877;51.992;4.504;2022-12-11T11:50:14;4.75;78.13
71177;DHT22;58877;51.992;4.504;2022-12-11T11:52:52;4.73;78.30
71177;DHT22;58877;51.992;4.504;2022-12-11T11:58:22;4.76;78.14
71177;DHT22;58877;51.992;4.504;2022-12-11T12:00:55;4.76;78.51
71177;DHT22;58877;51.992;4.504;2022-12-11T12:03:23;4.82;78.25
71177;DHT22;58877;51.992;4.504;2022-12-11T12:05:53;4.85;78.32
71177;DHT22;58877;51.992;4.504;2022-12-11T12:08:32;4.88;77.77
71177;DHT22;58877;51.992;4.504;2022-12-11T12:16:28;4.71;77.96
71177;DHT22;58877;51.992;4.504;2022-12-11T12:21:50;4.72;77.66
71177;DHT22;58877;51.992;4.504;2022-12-11T12:24:27;4.67;77.32
71177;DHT22;58877;51.992;4.504;2022-12-11T12:27:24;4.52;75.81
71177;DHT22;58877;51.992;4.504;2022-12-11T12:30:08;4.65;75.83
71177;DHT22;58877;51.992;4.504;2022-12-11T12:35:33;4.82;73.95
71177;DHT22;58877;51.992;4.504;2022-12-11T12:38:09;4.81;72.15
71177;DHT22;58877;51.992;4.504;2022-12-11T12:41:07;4.73;72.32
71177;DHT22;58877;51.992;4.504;2022-12-11T12:44:05;4.81;72.32
71177;DHT22;58877;51.992;4.504;2022-12-11T12:49:09;4.48;73.38
71177;DHT22;58877;51.992;4.504;2022-12-11T12:51:39;4.58;72.81
71177;DHT22;58877;51.992;4.504;2022-12-11T12:54:11;4.52;70.66
71177;DHT22;58877;51.992;4.504;2022-12-11T12:56:39;4.45;70.70
71177;DHT22;58877;51.992;4.504;2022-12-11T12:59:26;4.61;70.68
71177;DHT22;58877;51.992;4.504;2022-12-11T13:01:58;4.45;71.02
71177;DHT22;58877;51.992;4.504;2022-12-11T13:04:41;4.44;70.89
71177;DHT22;58877;51.992;4.504;2022-12-11T13:07:24;4.30;72.02
71177;DHT22;58877;51.992;4.504;2022-12-11T13:09:58;4.34;71.76
71177;DHT22;58877;51.992;4.504;2022-12-11T13:12:39;4.44;71.65
71177;DHT22;58877;51.992;4.504;2022-12-11T13:17:58;4.51;71.16
71177;DHT22;58877;51.992;4.504;2022-12-11T13:20:27;4.54;70.59
71177;DHT22;58877;51.992;4.504;2022-12-11T13:25:54;4.47;71.49
71177;DHT22;58877;51.992;4.504;2022-12-11T13:28:27;4.37;72.84
71177;DHT22;58877;51.992;4.504;2022-12-11T13:31:00;4.45;73.49
71177;DHT22;58877;51.992;4.504;2022-12-11T13:33:26;4.44;74.22
71177;DHT22;58877;51.992;4.504;2022-12-11T13:38:38;4.45;74.72
71177;DHT22;58877;51.992;4.504;2022-12-11T13:41:10;4.52;75.34
71177;DHT22;58877;51.992;4.504;2022-12-11T13:43:39;4.49;75.23
71177;DHT22;58877;51.992;4.504;2022-12-11T13:46:11;4.42;75.54
71177;DHT22;58877;51.992;4.504;2022-12-11T13:48:47;4.41;73.96
71177;DHT22;58877;51.992;4.504;2022-12-11T13:51:21;4.31;74.71
71177;DHT22;58877;51.992;4.504;2022-12-11T13:53:48;4.33;75.04
71177;DHT22;58877;51.992;4.504;2022-12-11T13:56:19;4.33;74.94
71177;DHT22;58877;51.992;4.504;2022-12-11T13:58:46;4.40;75.28
71177;DHT22;58877;51.992;4.504;2022-12-11T14:01:33;4.37;74.95
71177;DHT22;58877;51.992;4.504;2022-12-11T14:04:07;4.33;75.27
71177;DHT22;58877;51.992;4.504;2022-12-11T14:06:35;4.34;75.46
71177;DHT22;58877;51.992;4.504;2022-12-11T14:09:04;4.37;75.68
71177;DHT22;58877;51.992;4.504;2022-12-11T14:11:37;4.36;75.63
71177;DHT22;58877;51.992;4.504;2022-12-11T14:17:13;4.40;75.75
71177;DHT22;58877;51.992;4.504;2022-12-11T14:19:45;4.44;75.70
71177;DHT22;58877;51.992;4.504;2022-12-11T14:22:27;4.42;75.48
71177;DHT22;58877;51.992;4.504;2022-12-11T14:24:58;4.42;75.43
71177;DHT22;58877;51.992;4.504;2022-12-11T14:27:26;4.36;75.35
71177;DHT22;58877;51.992;4.504;2022-12-11T14:29:52;4.37;76.00
71177;DHT22;58877;51.992;4.504;2022-12-11T14:32:31;4.33;75.82
71177;DHT22;58877;51.992;4.504;2022-12-11T14:35:01;4.38;75.22
71177;DHT22;58877;51.992;4.504;2022-12-11T14:37:28;4.36;73.89
71177;DHT22;58877;51.992;4.504;2022-12-11T14:40:12;4.30;73.99
71177;DHT22;58877;51.992;4.504;2022-12-11T14:42:50;4.27;74.57
71177;DHT22;58877;51.992;4.504;2022-12-11T14:45:33;4.21;74.69
71177;DHT22;58877;51.992;4.504;2022-12-11T14:48:06;4.17;74.78
71177;DHT22;58877;51.992;4.504;2022-12-11T14:50:40;4.13;74.75
71177;DHT22;58877;51.992;4.504;2022-12-11T14:53:26;4.17;75.21
71177;DHT22;58877;51.992;4.504;2022-12-11T14:55:56;4.17;74.25
71177;DHT22;58877;51.992;4.504;2022-12-11T14:58:25;4.17;74.31
71177;DHT22;58877;51.992;4.504;2022-12-11T15:01:06;4.20;74.08
71177;DHT22;58877;51.992;4.504;2022-12-11T15:03:36;4.17;73.86
71177;DHT22;58877;51.992;4.504;2022-12-11T15:06:24;4.22;73.88
71177;DHT22;58877;51.992;4.504;2022-12-11T15:08:53;4.24;74.04
71177;DHT22;58877;51.992;4.504;2022-12-11T15:11:21;4.22;74.05
71177;DHT22;58877;51.992;4.504;2022-12-11T15:13:59;4.18;74.46
71177;DHT22;58877;51.992;4.504;2022-12-11T15:16:30;4.18;74.87
71177;DHT22;58877;51.992;4.504;2022-12-11T15:18:57;4.04;75.29
71177;DHT22;58877;51.992;4.504;2022-12-11T15:21:32;4.00;75.36
71177;DHT22;58877;51.992;4.504;2022-12-11T15:24:02;3.91;75.86
71177;DHT22;58877;51.992;4.504;2022-12-11T15:26:36;3.87;76.16
71177;DHT22;58877;51.992;4.504;2022-12-11T15:29:06;3.93;76.11
71177;DHT22;58877;51.992;4.504;2022-12-11T15:31:58;3.96;75.86
71177;DHT22;58877;51.992;4.504;2022-12-11T15:34:24;3.83;75.51
71177;DHT22;58877;51.992;4.504;2022-12-11T15:36:49;3.77;76.11
71177;DHT22;58877;51.992;4.504;2022-12-11T15:39:15;3.74;76.02
71177;DHT22;58877;51.992;4.504;2022-12-11T15:41:41;3.80;75.91
71177;DHT22;58877;51.992;4.504;2022-12-11T15:44:18;3.83;75.63
71177;DHT22;58877;51.992;4.504;2022-12-11T15:46:44;3.74;75.86
71177;DHT22;58877;51.992;4.504;2022-12-11T15:49:12;3.70;75.75
71177;DHT22;58877;51.992;4.504;2022-12-11T15:51:38;3.66;75.73
71177;DHT22;58877;51.992;4.504;2022-12-11T15:54:04;3.59;76.03
71177;DHT22;58877;51.992;4.504;2022-12-11T15:56:30;3.70;76.09
71177;DHT22;58877;51.992;4.504;2022-12-11T15:59:02;3.73;75.79
71177;DHT22;58877;51.992;4.504;2022-12-11T16:01:29;3.73;75.72
71177;DHT22;58877;51.992;4.504;2022-12-11T16:03:54;3.70;75.78
71177;DHT22;58877;51.992;4.504;2022-12-11T16:06:20;3.69;75.59
71177;DHT22;58877;51.992;4.504;2022-12-11T16:08:46;3.69;75.56
71177;DHT22;58877;51.992;4.504;2022-12-11T16:11:12;3.67;75.56
71177;DHT22;58877;51.992;4.504;2022-12-11T16:13:40;3.70;75.11
71177;DHT22;58877;51.992;4.504;2022-12-11T16:16:06;3.73;74.62
71177;DHT22;58877;51.992;4.504;2022-12-11T16:18:32;3.72;73.99
71177;DHT22;58877;51.992;4.504;2022-12-11T16:21:03;3.74;73.88
71177;DHT22;58877;51.992;4.504;2022-12-11T16:23:29;3.76;73.79
71177;DHT22;58877;51.992;4.504;2022-12-11T16:25:55;3.70;73.80
71177;DHT22;58877;51.992;4.504;2022-12-11T16:28:20;3.66;73.81
71177;DHT22;58877;51.992;4.504;2022-12-11T16:30:46;3.67;73.47
71177;DHT22;58877;51.992;4.504;2022-12-11T16:33:13;3.70;73.78
71177;DHT22;58877;51.992;4.504;2022-12-11T16:35:39;3.66;73.72
71177;DHT22;58877;51.992;4.504;2022-12-11T16:38:05;3.64;73.56
71177;DHT22;58877;51.992;4.504;2022-12-11T16:40:32;3.55;73.62
71177;DHT22;58877;51.992;4.504;2022-12-11T16:42:57;3.46;74.05
71177;DHT22;58877;51.992;4.504;2022-12-11T16:45:24;3.39;74.36
71177;DHT22;58877;51.992;4.504;2022-12-11T16:47:51;3.35;74.52
71177;DHT22;58877;51.992;4.504;2022-12-11T16:50:17;3.31;74.85
71177;DHT22;58877;51.992;4.504;2022-12-11T16:52:44;3.32;74.78
71177;DHT22;58877;51.992;4.504;2022-12-11T16:55:13;3.31;74.98
71177;DHT22;58877;51.992;4.504;2022-12-11T16:57:40;3.36;74.85
71177;DHT22;58877;51.992;4.504;2022-12-11T17:00:10;3.39;74.67
71177;DHT22;58877;51.992;4.504;2022-12-11T17:02:40;3.38;74.68
71177;DHT22;58877;51.992;4.504;2022-12-11T17:05:06;3.42;75.03
71177;DHT22;58877;51.992;4.504;2022-12-11T17:07:32;3.43;75.02
71177;DHT22;58877;51.992;4.504;2022-12-11T17:09:59;3.38;75.06
71177;DHT22;58877;51.992;4.504;2022-12-11T17:12:26;3.42;75.19
71177;DHT22;58877;51.992;4.504;2022-12-11T17:14:53;3.43;74.33
71177;DHT22;58877;51.992;4.504;2022-12-11T17:17:19;3.48;74.24
71177;DHT22;58877;51.992;4.504;2022-12-11T17:19:45;3.53;74.40